EPKK/KRK METAR and TAF weather

Enter ICAO airport designator
Station Type Date Time Source
EPKK METAR 2019/06/18 15:30 UTC NOAA

EPKK 181530Z 07011KT 050V110 9999 FEW040 25/15 Q1017


Station Type Date Time Source
EPKK Decoded METAR 2019/06/18 15:30 UTC NOAA

Krakow, Poland (EPKK) 50-05N 019-48E 237M
Jun 18, 2019 - 11:30 AM EDT / 2019.06.18 1530 UTC
Wind: from the ENE (070 degrees) at 13 MPH (11 KT) (direction variable):0
Visibility: greater than 7 mile(s):0
Sky conditions: mostly clear
Temperature: 77 F (25 C)
Dew Point: 59 F (15 C)
Relative Humidity: 53%
Pressure (altimeter): 30.03 in. Hg (1017 hPa)
ob: EPKK 181530Z 07011KT 050V110 9999 FEW040 25/15 Q1017
cycle: 15

Station Type Date Time Source
EPKK TAF 2019/06/18 15:33 UTC NOAA

TAF TAF EPKK 181430Z 1815/1915 07010KT 9999 SCT045
BECMG 1822/1901 VRB02KT PROB30
TEMPO 1901/1904 4000 BR
TEMPO 1910/1915 SCT035CB PROB40
TEMPO 1913/1915 VRB15G30KT TSRA

Example: see airport list